Time;durP1;ratioP1;P1;durP2;ratioP2;P2;SDS_P1;SDS_P2;PMS_P1;PMS_P2;Temp;Humidity;BMP_temperature;BMP_pressure;BME280_temperature;BME280_humidity;BME280_pressure;Samples;Min_cycle;Max_cycle;Signal;HPM_P1;HPM_P2
2022/10/07 00:01:45;;;;;;;;;;;21.00;75.40;;;;;;5242350;22;20310;-73
2022/10/07 00:04:06;;;;;;;;;;;21.00;75.40;;;;;;5282164;22;19905;-73
2022/10/07 00:06:28;;;;;;;;;;;21.00;75.40;;;;;;5264389;22;19891;-73
2022/10/07 00:08:51;;;;;;;;;;;21.10;75.30;;;;;;5259498;22;20069;-76
2022/10/07 00:11:21;;;;;;;;;;;21.10;75.20;;;;;;5295228;22;19906;-74
2022/10/07 00:13:44;;;;;;;;;;;21.10;75.10;;;;;;5274305;22;19957;-76
2022/10/07 00:16:11;;;;;;;;;;;21.20;75.20;;;;;;5242715;22;19902;-73
2022/10/07 00:18:34;;;;;;;;;;;21.20;75.20;;;;;;5241906;22;19902;-73
2022/10/07 00:20:56;;;;;;;;;;;21.20;75.10;;;;;;5241264;22;19912;-75
2022/10/07 00:23:18;;;;;;;;;;;21.30;75.10;;;;;;5239571;22;19959;-73
2022/10/07 00:25:40;;;;;;;;;;;21.30;74.90;;;;;;5272014;22;19910;-73
2022/10/07 00:28:02;;;;;;;;;;;21.30;74.90;;;;;;5239361;22;19915;-71
2022/10/07 00:30:24;;;;;;;;;;;21.40;74.80;;;;;;5273743;22;19902;-72
2022/10/07 00:32:46;;;;;;;;;;;21.40;74.80;;;;;;5274962;22;19917;-74
2022/10/07 00:35:08;;;;;;;;;;;21.40;74.80;;;;;;5271976;22;19905;-77
2022/10/07 00:37:29;;;;;;;;;;;21.50;74.70;;;;;;5274232;22;20701;-75
2022/10/07 00:39:51;;;;;;;;;;;21.50;74.60;;;;;;5275194;22;19909;-75
2022/10/07 00:42:13;;;;;;;;;;;21.50;74.60;;;;;;5273833;22;19910;-74
2022/10/07 00:44:38;;;;;;;;;;;21.60;74.70;;;;;;5274577;22;20234;-76
2022/10/07 00:47:03;;;;;;;;;;;21.60;74.70;;;;;;5274793;22;20623;-78
2022/10/07 00:49:29;;;;;;;;;;;21.60;74.70;;;;;;5241844;22;19910;-73
2022/10/07 00:51:51;;;;;;;;;;;21.60;74.50;;;;;;5272444;22;19906;-77
2022/10/07 00:54:15;;;;;;;;;;;21.60;74.30;;;;;;5239566;22;19915;-72
2022/10/07 00:56:38;;;;;;;;;;;21.60;74.40;;;;;;5271853;22;19906;-72
2022/10/07 00:59:00;;;;;;;;;;;21.60;74.40;;;;;;5272129;22;19910;-72
2022/10/07 01:01:23;;;;;;;;;;;21.60;74.20;;;;;;5241795;22;19988;-73
2022/10/07 01:03:46;;;;;;;;;;;21.70;74.30;;;;;;5272916;22;19956;-73
2022/10/07 01:06:09;;;;;;;;;;;21.70;74.20;;;;;;5272128;22;19906;-74
2022/10/07 01:08:31;;;;;;;;;;;21.70;74.10;;;;;;5241557;22;19939;-73
2022/10/07 01:10:53;;;;;;;;;;;21.70;74.10;;;;;;5273352;22;19906;-75
2022/10/07 01:13:35;;;;;;;;;;;21.70;74.00;;;;;;5248457;22;19945;-74
2022/10/07 01:16:32;;;;;;;;;;;21.70;73.90;;;;;;5246200;22;19910;-73
2022/10/07 01:19:06;;;;;;;;;;;21.80;73.80;;;;;;5143248;23;20398;-75
2022/10/07 01:21:27;;;;;;;;;;;21.80;73.80;;;;;;5233574;22;19907;-74
2022/10/07 01:23:57;;;;;;;;;;;21.80;73.90;;;;;;5264462;22;20308;-75
2022/10/07 01:26:35;;;;;;;;;;;21.80;73.90;;;;;;5273526;22;19906;-73
2022/10/07 01:28:59;;;;;;;;;;;21.80;73.80;;;;;;5243648;22;19906;-75
2022/10/07 01:31:24;;;;;;;;;;;21.80;73.80;;;;;;5245913;22;19907;-77
2022/10/07 01:33:47;;;;;;;;;;;21.90;73.80;;;;;;5276213;22;19914;-73
2022/10/07 01:36:11;;;;;;;;;;;21.90;73.90;;;;;;5276516;22;19913;-74
2022/10/07 01:38:34;;;;;;;;;;;21.90;73.90;;;;;;5248465;22;19906;-76
2022/10/07 01:40:59;;;;;;;;;;;21.90;73.90;;;;;;5243412;22;19906;-75
2022/10/07 01:43:22;;;;;;;;;;;21.90;74.00;;;;;;5275242;22;20645;-79
2022/10/07 01:45:44;;;;;;;;;;;21.90;74.10;;;;;;5274270;22;19906;-74
2022/10/07 01:48:06;;;;;;;;;;;21.90;74.00;;;;;;5277755;22;19936;-75
2022/10/07 01:53:23;;;;;;;;;;;22.00;73.10;;;;;;5249644;22;19917;-75
2022/10/07 01:55:45;;;;;;;;;;;21.90;72.80;;;;;;5274521;22;19906;-73
2022/10/07 01:58:25;;;;;;;;;;;21.90;72.60;;;;;;5275927;22;19906;-71
2022/10/07 02:00:52;;;;;;;;;;;22.00;73.00;;;;;;5273305;22;20302;-72
2022/10/07 02:03:27;;;;;;;;;;;22.00;73.50;;;;;;5242439;22;19914;-72
2022/10/07 02:05:52;;;;;;;;;;;22.10;73.80;;;;;;5278806;22;19906;-71
2022/10/07 02:08:43;;;;;;;;;;;22.10;74.00;;;;;;5255584;22;19978;-70
2022/10/07 02:11:05;;;;;;;;;;;22.10;74.00;;;;;;5248045;22;19909;-72
2022/10/07 02:13:50;;;;;;;;;;;22.10;74.70;;;;;;5285015;22;19932;-71
2022/10/07 02:16:21;;;;;;;;;;;22.10;74.10;;;;;;5250960;22;19911;-70
2022/10/07 02:18:46;;;;;;;;;;;22.20;74.20;;;;;;5257186;22;19902;-73
2022/10/07 02:21:09;;;;;;;;;;;22.20;74.20;;;;;;5244526;22;20389;-72
2022/10/07 02:23:33;;;;;;;;;;;22.20;74.20;;;;;;5256515;22;19906;-72
2022/10/07 02:25:55;;;;;;;;;;;22.30;74.20;;;;;;5280913;22;19905;-71
2022/10/07 02:28:19;;;;;;;;;;;22.30;74.10;;;;;;5249802;22;19977;-71
2022/10/07 02:30:42;;;;;;;;;;;22.30;74.10;;;;;;5282114;22;19990;-71
2022/10/07 02:33:05;;;;;;;;;;;22.30;74.10;;;;;;5258903;22;20314;-73
2022/10/07 02:35:34;;;;;;;;;;;22.40;74.20;;;;;;5250641;22;19930;-71
2022/10/07 02:37:57;;;;;;;;;;;22.40;74.00;;;;;;5246415;22;20330;-72
2022/10/07 02:40:20;;;;;;;;;;;22.40;74.10;;;;;;5289579;22;19902;-75
2022/10/07 02:42:51;;;;;;;;;;;22.40;74.10;;;;;;5221088;22;20386;-72
2022/10/07 02:45:32;;;;;;;;;;;22.40;74.00;;;;;;5282987;22;20373;-71
2022/10/07 02:48:10;;;;;;;;;;;22.40;74.00;;;;;;5252505;22;19910;-72
2022/10/07 02:50:36;;;;;;;;;;;22.50;74.10;;;;;;5273377;22;19910;-70
2022/10/07 02:53:00;;;;;;;;;;;22.50;74.10;;;;;;5239776;22;20144;-71
2022/10/07 02:55:23;;;;;;;;;;;22.50;74.00;;;;;;5240559;22;19930;-71
2022/10/07 02:57:46;;;;;;;;;;;22.50;74.00;;;;;;5271513;22;20081;-72
2022/10/07 03:00:09;;;;;;;;;;;22.50;73.70;;;;;;5240358;22;19906;-72
2022/10/07 03:02:51;;;;;;;;;;;22.50;73.70;;;;;;5241383;22;19907;-72
2022/10/07 03:05:13;;;;;;;;;;;22.50;74.00;;;;;;5265161;22;20621;-73
2022/10/07 03:07:35;;;;;;;;;;;22.60;74.00;;;;;;5240952;22;19937;-73
2022/10/07 03:09:57;;;;;;;;;;;22.60;74.20;;;;;;5243719;22;20231;-71
2022/10/07 03:12:19;;;;;;;;;;;22.60;74.20;;;;;;5273554;22;19906;-73
2022/10/07 03:14:43;;;;;;;;;;;22.60;74.20;;;;;;5274532;22;19902;-72
2022/10/07 03:17:05;;;;;;;;;;;22.60;74.30;;;;;;5272847;22;19902;-71
2022/10/07 03:19:27;;;;;;;;;;;22.60;74.10;;;;;;5273405;22;19959;-73
2022/10/07 03:21:49;;;;;;;;;;;22.60;73.20;;;;;;5272199;22;19902;-72
2022/10/07 03:24:11;;;;;;;;;;;22.60;73.00;;;;;;5241457;22;19977;-71
2022/10/07 03:26:34;;;;;;;;;;;22.60;72.90;;;;;;5242665;22;19902;-71
2022/10/07 03:28:56;;;;;;;;;;;22.60;72.70;;;;;;5275084;22;20330;-71
2022/10/07 03:31:17;;;;;;;;;;;22.60;72.70;;;;;;5271594;22;19937;-73
2022/10/07 03:33:39;;;;;;;;;;;22.60;72.40;;;;;;5274034;22;20333;-73
2022/10/07 03:36:01;;;;;;;;;;;22.60;72.30;;;;;;5238888;22;19910;-74
2022/10/07 03:38:23;;;;;;;;;;;22.60;72.20;;;;;;5274239;22;19902;-74
2022/10/07 03:40:45;;;;;;;;;;;22.50;72.00;;;;;;5240368;22;19907;-71
2022/10/07 03:43:08;;;;;;;;;;;22.50;72.20;;;;;;5240146;22;19906;-74
2022/10/07 03:45:30;;;;;;;;;;;22.50;72.40;;;;;;5271467;22;19902;-74
2022/10/07 03:47:52;;;;;;;;;;;22.60;72.80;;;;;;5270443;22;20416;-73
2022/10/07 03:50:13;;;;;;;;;;;22.60;72.90;;;;;;5272559;22;19909;-73
2022/10/07 03:52:35;;;;;;;;;;;22.60;73.10;;;;;;5242340;22;19952;-72
2022/10/07 03:54:57;;;;;;;;;;;22.70;73.30;;;;;;5240018;22;19913;-72
2022/10/07 03:59:59;;;;;;;;;;;22.70;73.40;;;;;;5272377;22;19976;-74
2022/10/07 04:02:24;;;;;;;;;;;22.70;73.50;;;;;;5238317;22;20366;-74
2022/10/07 04:04:46;;;;;;;;;;;22.70;73.50;;;;;;5236042;22;19968;-74
2022/10/07 04:07:08;;;;;;;;;;;22.70;73.40;;;;;;5236215;22;19913;-73
2022/10/07 04:09:30;;;;;;;;;;;22.70;73.30;;;;;;5239471;22;19906;-75
2022/10/07 04:11:52;;;;;;;;;;;22.70;73.90;;;;;;5267356;22;19950;-79
2022/10/07 04:14:15;;;;;;;;;;;22.70;74.00;;;;;;5233466;22;19914;-73
2022/10/07 04:16:37;;;;;;;;;;;22.80;73.90;;;;;;5221464;22;19912;-76
2022/10/07 04:18:59;;;;;;;;;;;22.80;73.70;;;;;;5237520;22;19938;-76
2022/10/07 04:21:21;;;;;;;;;;;22.80;73.80;;;;;;5235189;22;19907;-76
2022/10/07 04:23:43;;;;;;;;;;;22.80;73.80;;;;;;5233950;22;19913;-74
2022/10/07 04:26:09;;;;;;;;;;;22.80;73.90;;;;;;5234036;22;20219;-75
2022/10/07 04:28:31;;;;;;;;;;;22.80;74.20;;;;;;5267551;22;20322;-73
2022/10/07 04:30:53;;;;;;;;;;;22.80;74.00;;;;;;5265995;22;19908;-74
2022/10/07 04:33:15;;;;;;;;;;;22.80;74.20;;;;;;5235367;22;19914;-75
2022/10/07 04:35:38;;;;;;;;;;;22.80;74.40;;;;;;5235309;22;20419;-76
2022/10/07 04:38:00;;;;;;;;;;;22.80;74.50;;;;;;5268233;22;19912;-74
2022/10/07 04:40:22;;;;;;;;;;;22.90;74.10;;;;;;5265555;22;20654;-74
2022/10/07 04:45:25;;;;;;;;;;;22.80;74.00;;;;;;5266387;22;20241;-72
2022/10/07 04:47:47;;;;;;;;;;;22.80;74.10;;;;;;5265691;22;19913;-73
2022/10/07 04:50:09;;;;;;;;;;;22.80;74.20;;;;;;5237367;22;19990;-75
2022/10/07 04:52:31;;;;;;;;;;;22.90;74.40;;;;;;5267782;22;20285;-75
2022/10/07 04:54:53;;;;;;;;;;;22.90;74.50;;;;;;5270179;22;19913;-76
2022/10/07 04:57:15;;;;;;;;;;;22.90;74.50;;;;;;5269346;22;19932;-74
2022/10/07 04:59:37;;;;;;;;;;;22.90;74.40;;;;;;5268626;22;20360;-75
2022/10/07 05:01:58;;;;;;;;;;;22.90;74.50;;;;;;5268647;22;19906;-73
2022/10/07 05:04:20;;;;;;;;;;;22.90;74.50;;;;;;5269665;22;20091;-73
2022/10/07 05:06:42;;;;;;;;;;;22.90;74.20;;;;;;5270093;22;19909;-74
2022/10/07 05:09:04;;;;;;;;;;;23.00;74.20;;;;;;5240254;22;19955;-76
2022/10/07 05:11:26;;;;;;;;;;;22.90;74.20;;;;;;5268461;22;19996;-74
2022/10/07 05:13:48;;;;;;;;;;;22.90;74.30;;;;;;5270919;22;19918;-73
2022/10/07 05:16:10;;;;;;;;;;;22.90;74.20;;;;;;5237550;22;19906;-74
2022/10/07 05:18:34;;;;;;;;;;;23.00;74.30;;;;;;5234973;22;19918;-74
2022/10/07 05:20:56;;;;;;;;;;;23.00;74.20;;;;;;5268293;22;19954;-75
2022/10/07 05:23:19;;;;;;;;;;;23.00;74.20;;;;;;5236385;22;20306;-74
2022/10/07 05:25:42;;;;;;;;;;;23.00;74.10;;;;;;5238994;22;20035;-77
2022/10/07 05:28:04;;;;;;;;;;;23.00;74.10;;;;;;5237995;22;20345;-73
2022/10/07 05:30:26;;;;;;;;;;;23.00;74.20;;;;;;5238930;22;19906;-72
2022/10/07 05:32:49;;;;;;;;;;;23.00;74.20;;;;;;5269782;22;20205;-74
2022/10/07 05:35:12;;;;;;;;;;;23.00;74.20;;;;;;5268733;22;20684;-73
2022/10/07 05:37:34;;;;;;;;;;;23.00;74.20;;;;;;5237894;22;20206;-72
2022/10/07 05:39:56;;;;;;;;;;;23.00;74.10;;;;;;5236719;22;19903;-72
2022/10/07 05:42:18;;;;;;;;;;;23.00;74.20;;;;;;5269434;22;19937;-72
2022/10/07 05:44:40;;;;;;;;;;;23.00;74.00;;;;;;5239010;22;19907;-73
2022/10/07 05:47:03;;;;;;;;;;;23.00;74.00;;;;;;5236435;22;19992;-71
2022/10/07 05:49:26;;;;;;;;;;;23.00;74.20;;;;;;5268870;22;19925;-71
2022/10/07 05:51:48;;;;;;;;;;;23.00;74.20;;;;;;5266712;22;20369;-74
2022/10/07 05:54:10;;;;;;;;;;;23.00;74.30;;;;;;5238349;22;20016;-72
2022/10/07 05:56:32;;;;;;;;;;;23.00;74.20;;;;;;5235781;22;19938;-71
2022/10/07 05:58:56;;;;;;;;;;;23.00;74.20;;;;;;5267024;22;19906;-72
2022/10/07 06:01:19;;;;;;;;;;;23.00;74.30;;;;;;5235984;22;19957;-75
2022/10/07 06:03:41;;;;;;;;;;;23.00;74.30;;;;;;5267068;22;20001;-72
2022/10/07 06:06:03;;;;;;;;;;;23.00;74.20;;;;;;5234291;22;19913;-71
2022/10/07 06:08:26;;;;;;;;;;;23.00;74.20;;;;;;5236329;22;19906;-72
2022/10/07 06:13:29;;;;;;;;;;;23.00;74.20;;;;;;5267183;22;19988;-72
2022/10/07 06:15:51;;;;;;;;;;;23.00;74.20;;;;;;5265564;22;19913;-72
2022/10/07 06:18:15;;;;;;;;;;;23.00;73.70;;;;;;5235657;22;20311;-71
2022/10/07 06:20:37;;;;;;;;;;;23.00;73.90;;;;;;5267327;22;19997;-71
2022/10/07 06:22:59;;;;;;;;;;;23.00;73.10;;;;;;5268414;22;19905;-76
2022/10/07 06:25:22;;;;;;;;;;;22.90;73.20;;;;;;5235715;22;19945;-79
2022/10/07 06:27:44;;;;;;;;;;;22.90;73.20;;;;;;5268896;22;19902;-76
2022/10/07 06:30:06;;;;;;;;;;;22.90;73.20;;;;;;5238967;22;20309;-79
2022/10/07 06:32:29;;;;;;;;;;;22.90;73.30;;;;;;5242196;22;19961;-80
2022/10/07 06:34:51;;;;;;;;;;;22.80;73.10;;;;;;5267702;22;20227;-77
2022/10/07 06:37:13;;;;;;;;;;;22.80;73.10;;;;;;5268527;22;20242;-77
2022/10/07 06:39:35;;;;;;;;;;;22.80;73.10;;;;;;5235846;22;20396;-81
2022/10/07 06:41:56;;;;;;;;;;;22.80;73.10;;;;;;5267989;22;19906;-81
2022/10/07 06:44:18;;;;;;;;;;;22.80;73.00;;;;;;5235399;22;19934;-79
2022/10/07 06:46:40;;;;;;;;;;;22.80;73.00;;;;;;5268565;22;19906;-75
2022/10/07 06:49:03;;;;;;;;;;;22.80;73.00;;;;;;4202733;27;19973;-38
2022/10/07 06:51:25;;;;;;;;;;;22.80;73.00;;;;;;4201695;28;19939;-38
2022/10/07 06:53:51;;;;;;;;;;;22.70;73.00;;;;;;4199228;28;19912;-38
2022/10/07 06:56:13;;;;;;;;;;;22.70;72.90;;;;;;4201173;28;19922;-39
2022/10/07 06:58:35;;;;;;;;;;;22.70;72.90;;;;;;4211574;28;20604;-39
2022/10/07 07:01:00;;;;;;;;;;;22.70;72.90;;;;;;4202802;28;19917;-38
2022/10/07 07:03:23;;;;;;;;;;;22.70;72.90;;;;;;4198009;28;19917;-39
2022/10/07 07:05:45;;;;;;;;;;;22.70;72.90;;;;;;4221844;27;20437;-39
2022/10/07 07:08:07;;;;;;;;;;;22.70;72.90;;;;;;4219297;27;19966;-38
2022/10/07 07:10:29;;;;;;;;;;;22.70;72.80;;;;;;4222939;27;19968;-40
2022/10/07 07:12:54;;;;;;;;;;;22.70;72.80;;;;;;4224235;27;19912;-39
2022/10/07 07:15:16;;;;;;;;;;;22.70;72.80;;;;;;4224651;27;20418;-42
2022/10/07 07:17:38;;;;;;;;;;;22.60;72.80;;;;;;4222883;27;20759;-38
2022/10/07 07:20:00;;;;;;;;;;;22.60;72.90;;;;;;4227721;27;19923;-38
2022/10/07 07:22:22;;;;;;;;;;;22.60;73.70;;;;;;4229458;27;19916;-40
2022/10/07 07:24:44;;;;;;;;;;;22.60;73.30;;;;;;4211157;27;20915;-39
2022/10/07 07:27:05;;;;;;;;;;;22.60;73.50;;;;;;4228989;27;19943;-37
2022/10/07 07:29:28;;;;;;;;;;;22.60;73.80;;;;;;4224718;27;20282;-38
2022/10/07 07:31:50;;;;;;;;;;;22.60;73.50;;;;;;4229089;27;20022;-38
2022/10/07 07:34:12;;;;;;;;;;;22.60;73.20;;;;;;4222899;27;20635;-41
2022/10/07 07:36:35;;;;;;;;;;;22.60;73.40;;;;;;4224029;27;20414;-38
2022/10/07 07:39:08;;;;;;;;;;;22.60;73.50;;;;;;4225264;27;20478;-37
2022/10/07 07:41:31;;;;;;;;;;;22.60;73.70;;;;;;4229663;27;19919;-38
2022/10/07 07:43:54;;;;;;;;;;;22.60;73.90;;;;;;4231359;27;19923;-39
2022/10/07 07:46:16;;;;;;;;;;;22.60;74.00;;;;;;4228946;27;19930;-38
2022/10/07 07:48:38;;;;;;;;;;;22.50;74.00;;;;;;4226797;27;19962;-38
2022/10/07 07:51:00;;;;;;;;;;;22.60;74.20;;;;;;4225002;27;20265;-39
2022/10/07 07:53:22;;;;;;;;;;;22.60;74.40;;;;;;4228472;27;19915;-39
2022/10/07 07:55:56;;;;;;;;;;;22.60;74.60;;;;;;4235302;27;19964;-38
2022/10/07 07:58:20;;;;;;;;;;;22.60;74.60;;;;;;4231971;27;19915;-38
2022/10/07 08:00:42;;;;;;;;;;;22.60;74.60;;;;;;4212837;27;20386;-39
2022/10/07 08:03:05;;;;;;;;;;;22.60;74.70;;;;;;4199742;27;19919;-39
2022/10/07 08:05:27;;;;;;;;;;;22.60;75.00;;;;;;4213723;27;19912;-46
2022/10/07 08:07:48;;;;;;;;;;;22.60;74.60;;;;;;4216829;27;19919;-48
2022/10/07 08:10:10;;;;;;;;;;;22.60;74.40;;;;;;4214800;27;20252;-49
2022/10/07 08:12:32;;;;;;;;;;;22.60;74.70;;;;;;4217844;27;19925;-46
2022/10/07 08:14:54;;;;;;;;;;;22.60;74.80;;;;;;4216857;27;19915;-45
2022/10/07 08:17:16;;;;;;;;;;;22.60;74.90;;;;;;4213641;27;19920;-48
2022/10/07 08:19:38;;;;;;;;;;;22.50;74.90;;;;;;4215656;27;20387;-48
2022/10/07 08:22:00;;;;;;;;;;;22.60;75.00;;;;;;4215035;27;20285;-49
2022/10/07 08:24:24;;;;;;;;;;;22.60;74.90;;;;;;4215331;27;20443;-48
2022/10/07 08:26:46;;;;;;;;;;;22.70;74.90;;;;;;4220806;27;20793;-47
2022/10/07 08:29:08;;;;;;;;;;;22.70;74.80;;;;;;4223123;27;19919;-48
2022/10/07 08:31:30;;;;;;;;;;;22.70;74.70;;;;;;4219042;27;22020;-50
2022/10/07 08:33:53;;;;;;;;;;;22.70;74.80;;;;;;4219856;27;19971;-46
2022/10/07 08:36:16;;;;;;;;;;;22.70;74.70;;;;;;4214830;27;19920;-43
2022/10/07 08:38:39;;;;;;;;;;;22.70;74.60;;;;;;4223430;27;19922;-49
2022/10/07 08:41:13;;;;;;;;;;;22.70;74.50;;;;;;4219640;27;19915;-50
2022/10/07 08:43:44;;;;;;;;;;;22.80;74.50;;;;;;4224538;27;19927;-49
2022/10/07 08:46:07;;;;;;;;;;;22.80;74.30;;;;;;4216541;27;19920;-47
2022/10/07 08:48:32;;;;;;;;;;;22.80;74.10;;;;;;4214272;27;19959;-52
2022/10/07 08:51:03;;;;;;;;;;;22.80;74.10;;;;;;4214926;27;19920;-49
2022/10/07 08:53:32;;;;;;;;;;;22.80;74.10;;;;;;4203455;27;19951;-50
2022/10/07 08:55:55;;;;;;;;;;;22.80;74.30;;;;;;4226383;27;19916;-47
2022/10/07 08:58:30;;;;;;;;;;;22.80;74.30;;;;;;4213974;27;19916;-45
2022/10/07 09:00:58;;;;;;;;;;;22.80;74.20;;;;;;4211338;27;19920;-48
2022/10/07 09:03:23;;;;;;;;;;;22.90;74.10;;;;;;4215987;27;19915;-53
2022/10/07 09:05:48;;;;;;;;;;;22.90;73.80;;;;;;4222026;27;19989;-52
2022/10/07 09:08:12;;;;;;;;;;;22.90;73.50;;;;;;4201109;28;20392;-50
2022/10/07 09:10:36;;;;;;;;;;;22.80;73.30;;;;;;4217906;27;20839;-45
2022/10/07 09:12:58;;;;;;;;;;;22.90;73.30;;;;;;4226626;27;19923;-45
2022/10/07 09:15:30;;;;;;;;;;;22.90;73.00;;;;;;4213731;27;20434;-53
2022/10/07 09:17:57;;;;;;;;;;;22.80;72.90;;;;;;4214325;27;19920;-51
2022/10/07 09:20:20;;;;;;;;;;;22.90;72.60;;;;;;4217800;27;20280;-52
2022/10/07 09:22:43;;;;;;;;;;;22.90;72.70;;;;;;4212687;27;20422;-50
2022/10/07 09:25:12;;;;;;;;;;;22.90;72.80;;;;;;4217942;27;20386;-46
2022/10/07 09:27:34;;;;;;;;;;;22.80;72.70;;;;;;4217115;27;19926;-49
2022/10/07 09:29:56;;;;;;;;;;;22.80;72.90;;;;;;4217891;27;19920;-46
2022/10/07 09:32:19;;;;;;;;;;;22.90;73.00;;;;;;4211207;27;19916;-46
2022/10/07 09:34:41;;;;;;;;;;;22.90;73.50;;;;;;4217729;27;19927;-48
2022/10/07 09:37:08;;;;;;;;;;;22.90;73.40;;;;;;4225949;27;19916;-47
2022/10/07 09:39:30;;;;;;;;;;;22.90;73.50;;;;;;4212929;27;19923;-51
2022/10/07 09:41:52;;;;;;;;;;;22.90;73.50;;;;;;4215516;27;20325;-50
2022/10/07 09:44:14;;;;;;;;;;;22.90;73.60;;;;;;4210321;27;19916;-48
2022/10/07 09:46:47;;;;;;;;;;;23.00;73.60;;;;;;4212177;27;20285;-49
2022/10/07 09:49:26;;;;;;;;;;;23.00;73.70;;;;;;4213118;27;20564;-50
2022/10/07 09:52:01;;;;;;;;;;;23.00;73.50;;;;;;4210112;27;20287;-47
2022/10/07 09:54:24;;;;;;;;;;;23.00;73.50;;;;;;4215147;27;19916;-50
2022/10/07 09:56:46;;;;;;;;;;;23.00;73.60;;;;;;4216979;27;19912;-52
2022/10/07 09:59:19;;;;;;;;;;;23.00;73.80;;;;;;4215700;27;21452;-48
2022/10/07 10:01:41;;;;;;;;;;;23.00;73.80;;;;;;4214772;27;20030;-49
2022/10/07 10:04:03;;;;;;;;;;;23.00;73.80;;;;;;4219035;27;20589;-47
2022/10/07 10:06:25;;;;;;;;;;;23.00;73.70;;;;;;4214602;27;20284;-48
2022/10/07 10:08:54;;;;;;;;;;;23.00;73.60;;;;;;4215449;27;20461;-50
2022/10/07 10:11:19;;;;;;;;;;;23.00;73.60;;;;;;4202901;27;20423;-45
2022/10/07 10:13:41;;;;;;;;;;;23.00;73.60;;;;;;4211610;27;19916;-49
2022/10/07 10:16:05;;;;;;;;;;;23.10;73.50;;;;;;4215184;27;20049;-53
2022/10/07 10:18:35;;;;;;;;;;;23.10;74.20;;;;;;4211126;27;20264;-53
2022/10/07 10:21:13;;;;;;;;;;;23.10;72.50;;;;;;4205675;28;20814;-44
2022/10/07 10:23:36;;;;;;;;;;;23.10;71.90;;;;;;4211166;27;19920;-44
2022/10/07 10:28:51;;;;;;;;;;;23.00;71.90;;;;;;4213340;27;20360;-45
2022/10/07 10:31:34;;;;;;;;;;;22.90;71.10;;;;;;4214510;27;19922;-44
2022/10/07 10:34:04;;;;;;;;;;;22.90;71.20;;;;;;4183061;27;20400;-43
2022/10/07 10:36:27;;;;;;;;;;;22.80;71.40;;;;;;4208475;28;19916;-43
2022/10/07 10:39:02;;;;;;;;;;;22.80;71.60;;;;;;4205986;28;19943;-43
2022/10/07 10:41:27;;;;;;;;;;;22.80;71.60;;;;;;4209127;27;19915;-43
2022/10/07 10:43:49;;;;;;;;;;;22.70;71.70;;;;;;4207368;27;19916;-48
2022/10/07 10:46:24;;;;;;;;;;;22.70;71.70;;;;;;4223939;27;19912;-45
2022/10/07 10:48:54;;;;;;;;;;;22.70;71.90;;;;;;4210845;28;20321;-43
2022/10/07 10:51:35;;;;;;;;;;;22.70;71.90;;;;;;4212090;27;19920;-43
2022/10/07 10:54:15;;;;;;;;;;;22.70;71.90;;;;;;4215133;28;20386;-43
2022/10/07 10:56:57;;;;;;;;;;;22.60;71.90;;;;;;4214369;28;19989;-43
2022/10/07 10:59:19;;;;;;;;;;;22.60;72.00;;;;;;4210546;28;19942;-43
2022/10/07 11:01:42;;;;;;;;;;;22.60;72.10;;;;;;4222106;27;20247;-44
2022/10/07 11:04:04;;;;;;;;;;;22.50;72.10;;;;;;4214604;27;19920;-48
2022/10/07 11:06:27;;;;;;;;;;;22.50;72.20;;;;;;4216222;27;19915;-49
2022/10/07 11:08:51;;;;;;;;;;;22.50;72.20;;;;;;4213990;28;20018;-45
2022/10/07 11:11:17;;;;;;;;;;;22.50;72.20;;;;;;4212724;28;19977;-45
2022/10/07 11:13:45;;;;;;;;;;;22.40;72.20;;;;;;4209093;28;20014;-43
2022/10/07 11:16:37;;;;;;;;;;;22.40;72.20;;;;;;4215621;28;20390;-43
2022/10/07 11:19:01;;;;;;;;;;;22.40;72.30;;;;;;4210886;27;20322;-43
2022/10/07 11:21:44;;;;;;;;;;;22.40;72.40;;;;;;4208420;27;19970;-45
2022/10/07 11:24:09;;;;;;;;;;;22.40;72.40;;;;;;4210646;28;19915;-43
2022/10/07 11:26:40;;;;;;;;;;;22.30;72.30;;;;;;4210054;28;19954;-47
2022/10/07 11:29:14;;;;;;;;;;;22.30;72.40;;;;;;4209737;28;19924;-43
2022/10/07 11:31:38;;;;;;;;;;;22.30;72.50;;;;;;4206563;28;20373;-44
2022/10/07 11:34:00;;;;;;;;;;;22.30;72.60;;;;;;4209034;28;19924;-43
2022/10/07 11:36:42;;;;;;;;;;;22.30;72.50;;;;;;4223739;27;19919;-44
2022/10/07 11:39:04;;;;;;;;;;;22.30;72.50;;;;;;4213455;27;19916;-44
2022/10/07 11:41:31;;;;;;;;;;;22.20;72.50;;;;;;4211470;27;20005;-49
2022/10/07 11:43:55;;;;;;;;;;;22.20;72.60;;;;;;4214249;27;19916;-43
2022/10/07 11:46:35;;;;;;;;;;;22.20;72.50;;;;;;4209403;27;19916;-46
2022/10/07 11:48:58;;;;;;;;;;;22.20;72.50;;;;;;4206633;27;20130;-43
2022/10/07 11:51:34;;;;;;;;;;;22.20;72.50;;;;;;4215697;27;19961;-43
2022/10/07 11:53:58;;;;;;;;;;;22.20;72.50;;;;;;4208871;27;19919;-43
2022/10/07 11:56:25;;;;;;;;;;;22.20;72.60;;;;;;4214086;27;19916;-44
2022/10/07 11:58:55;;;;;;;;;;;22.10;72.50;;;;;;4213126;27;19923;-44
2022/10/07 12:01:29;;;;;;;;;;;22.10;73.10;;;;;;4212260;27;19916;-47
2022/10/07 12:03:52;;;;;;;;;;;22.10;72.60;;;;;;4213720;27;20089;-44
2022/10/07 12:06:14;;;;;;;;;;;22.10;72.70;;;;;;4215866;27;19919;-43
2022/10/07 12:08:37;;;;;;;;;;;22.10;72.70;;;;;;4219112;27;20338;-44
2022/10/07 12:11:11;;;;;;;;;;;22.10;72.70;;;;;;4214401;27;19916;-45
2022/10/07 12:13:44;;;;;;;;;;;22.00;72.60;;;;;;4210646;27;20010;-43
2022/10/07 12:16:24;;;;;;;;;;;22.00;72.60;;;;;;4207670;27;20319;-43
2022/10/07 12:19:06;;;;;;;;;;;22.00;72.70;;;;;;4214191;27;20004;-43
2022/10/07 12:21:28;;;;;;;;;;;22.00;72.70;;;;;;4213920;27;19931;-49
2022/10/07 12:24:08;;;;;;;;;;;22.00;72.80;;;;;;4225182;27;19961;-45
2022/10/07 12:26:30;;;;;;;;;;;22.00;72.80;;;;;;4220084;27;19919;-43
2022/10/07 12:28:55;;;;;;;;;;;22.00;72.80;;;;;;4216055;27;19923;-44
2022/10/07 12:31:17;;;;;;;;;;;21.90;72.80;;;;;;4213597;27;20218;-42
2022/10/07 12:33:45;;;;;;;;;;;21.90;72.90;;;;;;4214792;27;19924;-43
2022/10/07 12:36:28;;;;;;;;;;;21.90;72.80;;;;;;4205734;27;20594;-43
2022/10/07 12:38:57;;;;;;;;;;;21.90;72.80;;;;;;4195735;28;19959;-44
2022/10/07 12:41:23;;;;;;;;;;;21.90;72.80;;;;;;4214343;27;19948;-45
2022/10/07 12:43:48;;;;;;;;;;;21.90;72.90;;;;;;4214968;27;19915;-44
2022/10/07 12:46:13;;;;;;;;;;;21.90;72.90;;;;;;4199145;27;20369;-42
2022/10/07 12:48:46;;;;;;;;;;;21.80;72.90;;;;;;4213464;27;19930;-45
2022/10/07 12:51:17;;;;;;;;;;;21.90;73.00;;;;;;4217174;27;19920;-43
2022/10/07 12:53:40;;;;;;;;;;;21.90;73.00;;;;;;4215668;27;19919;-45
2022/10/07 12:56:04;;;;;;;;;;;21.80;73.00;;;;;;4207947;28;20026;-44
2022/10/07 13:01:25;;;;;;;;;;;21.80;73.00;;;;;;4208085;27;19915;-43
2022/10/07 13:03:50;;;;;;;;;;;21.80;73.00;;;;;;4194586;27;19916;-42
2022/10/07 13:06:21;;;;;;;;;;;21.80;73.00;;;;;;4210226;27;19923;-43
2022/10/07 13:08:54;;;;;;;;;;;21.70;73.10;;;;;;4216906;27;20399;-44
2022/10/07 13:11:16;;;;;;;;;;;21.70;73.00;;;;;;4214285;27;19916;-43
2022/10/07 13:13:42;;;;;;;;;;;21.70;73.10;;;;;;4211361;27;19923;-43
2022/10/07 13:16:09;;;;;;;;;;;21.70;73.10;;;;;;4207842;27;19920;-45
2022/10/07 13:18:39;;;;;;;;;;;21.70;73.10;;;;;;4209888;28;19912;-43
2022/10/07 13:21:09;;;;;;;;;;;21.70;73.20;;;;;;4199042;27;20379;-42
2022/10/07 13:23:31;;;;;;;;;;;21.70;73.20;;;;;;4207482;27;20629;-47
2022/10/07 13:25:55;;;;;;;;;;;21.70;73.50;;;;;;4213550;27;19985;-50
2022/10/07 13:28:18;;;;;;;;;;;21.70;73.90;;;;;;4213932;27;20364;-49
2022/10/07 13:30:41;;;;;;;;;;;21.70;73.40;;;;;;4214992;27;20367;-47
2022/10/07 13:33:21;;;;;;;;;;;21.70;73.50;;;;;;4219175;27;20493;-48
2022/10/07 13:35:43;;;;;;;;;;;21.70;73.60;;;;;;4211865;27;19916;-50
2022/10/07 13:38:05;;;;;;;;;;;21.80;73.80;;;;;;4207983;27;19912;-50
2022/10/07 13:40:32;;;;;;;;;;;21.80;73.70;;;;;;4214115;27;19916;-49
2022/10/07 13:42:56;;;;;;;;;;;21.80;73.30;;;;;;4210995;27;20106;-48
2022/10/07 13:45:18;;;;;;;;;;;21.80;73.00;;;;;;4214862;27;20010;-47
2022/10/07 13:47:40;;;;;;;;;;;21.80;72.90;;;;;;4213095;27;20405;-46
2022/10/07 13:50:02;;;;;;;;;;;21.80;72.90;;;;;;4220751;27;20243;-48
2022/10/07 13:52:35;;;;;;;;;;;21.80;73.00;;;;;;4216315;27;19916;-48
2022/10/07 13:54:57;;;;;;;;;;;21.80;73.40;;;;;;4211866;27;20317;-45
2022/10/07 13:57:19;;;;;;;;;;;21.80;73.90;;;;;;4212062;27;20034;-46
2022/10/07 13:59:42;;;;;;;;;;;21.90;74.10;;;;;;4212217;27;19922;-45
2022/10/07 14:02:04;;;;;;;;;;;21.90;74.10;;;;;;4214246;27;19976;-44
2022/10/07 14:04:31;;;;;;;;;;;21.90;74.00;;;;;;4212258;27;19938;-44
2022/10/07 14:07:00;;;;;;;;;;;21.90;73.90;;;;;;4214158;27;19920;-43
2022/10/07 14:09:33;;;;;;;;;;;21.90;74.10;;;;;;4213470;27;20242;-44
2022/10/07 14:11:57;;;;;;;;;;;21.90;73.90;;;;;;4211021;27;20491;-42
2022/10/07 14:14:24;;;;;;;;;;;21.90;74.10;;;;;;4217399;27;20048;-43
2022/10/07 14:16:57;;;;;;;;;;;21.90;74.70;;;;;;4212212;27;19976;-46
2022/10/07 14:19:20;;;;;;;;;;;21.90;74.60;;;;;;4192453;28;20011;-44
2022/10/07 14:21:42;;;;;;;;;;;21.90;74.70;;;;;;4199000;28;19916;-45